sensor_id;sensor_type;location;lat;lon;timestamp;P1;durP1;ratioP1;P2;durP2;ratioP2
60492;SDS011;46341;51.290;-2.474;2023-04-12T00:00:04;22.80;;;3.67;;
60492;SDS011;46341;51.290;-2.474;2023-04-12T00:02:35;14.95;;;3.13;;
60492;SDS011;46341;51.290;-2.474;2023-04-12T00:05:03;17.83;;;2.70;;
60492;SDS011;46341;51.290;-2.474;2023-04-12T00:07:30;23.95;;;4.32;;
60492;SDS011;46341;51.290;-2.474;2023-04-12T00:09:56;20.00;;;4.28;;
60492;SDS011;46341;51.290;-2.474;2023-04-12T00:12:22;18.40;;;3.97;;
60492;SDS011;46341;51.290;-2.474;2023-04-12T00:14:49;17.17;;;3.25;;
60492;SDS011;46341;51.290;-2.474;2023-04-12T00:17:15;17.50;;;2.85;;
60492;SDS011;46341;51.290;-2.474;2023-04-12T00:19:41;14.15;;;2.97;;
60492;SDS011;46341;51.290;-2.474;2023-04-12T00:22:08;21.92;;;3.28;;
60492;SDS011;46341;51.290;-2.474;2023-04-12T00:24:35;18.98;;;3.03;;
60492;SDS011;46341;51.290;-2.474;2023-04-12T00:27:02;13.60;;;2.63;;
60492;SDS011;46341;51.290;-2.474;2023-04-12T00:29:28;22.63;;;3.80;;
60492;SDS011;46341;51.290;-2.474;2023-04-12T00:31:55;17.77;;;3.00;;
60492;SDS011;46341;51.290;-2.474;2023-04-12T00:34:21;20.50;;;3.30;;
60492;SDS011;46341;51.290;-2.474;2023-04-12T00:36:48;22.00;;;3.55;;
60492;SDS011;46341;51.290;-2.474;2023-04-12T00:39:15;12.18;;;2.15;;
60492;SDS011;46341;51.290;-2.474;2023-04-12T00:41:41;13.50;;;2.15;;
60492;SDS011;46341;51.290;-2.474;2023-04-12T00:44:07;13.77;;;2.40;;
60492;SDS011;46341;51.290;-2.474;2023-04-12T00:46:35;14.13;;;2.22;;
60492;SDS011;46341;51.290;-2.474;2023-04-12T00:49:03;10.40;;;2.35;;
60492;SDS011;46341;51.290;-2.474;2023-04-12T00:51:30;14.77;;;2.75;;
60492;SDS011;46341;51.290;-2.474;2023-04-12T00:53:58;8.88;;;1.42;;
60492;SDS011;46341;51.290;-2.474;2023-04-12T00:56:26;5.45;;;1.20;;
60492;SDS011;46341;51.290;-2.474;2023-04-12T00:58:54;7.50;;;1.38;;
60492;SDS011;46341;51.290;-2.474;2023-04-12T01:01:20;7.63;;;1.38;;
60492;SDS011;46341;51.290;-2.474;2023-04-12T01:03:47;7.88;;;1.50;;
60492;SDS011;46341;51.290;-2.474;2023-04-12T01:06:29;9.80;;;2.30;;
60492;SDS011;46341;51.290;-2.474;2023-04-12T01:09:04;6.15;;;1.77;;
60492;SDS011;46341;51.290;-2.474;2023-04-12T01:11:38;6.32;;;2.20;;
60492;SDS011;46341;51.290;-2.474;2023-04-12T01:14:12;5.20;;;1.00;;
60492;SDS011;46341;51.290;-2.474;2023-04-12T01:16:41;6.70;;;1.77;;
60492;SDS011;46341;51.290;-2.474;2023-04-12T01:19:28;6.47;;;1.88;;
60492;SDS011;46341;51.290;-2.474;2023-04-12T01:25:11;6.65;;;1.98;;
60492;SDS011;46341;51.290;-2.474;2023-04-12T01:27:41;7.90;;;2.72;;
60492;SDS011;46341;51.290;-2.474;2023-04-12T01:30:11;4.90;;;1.40;;
60492;SDS011;46341;51.290;-2.474;2023-04-12T01:32:38;5.88;;;0.95;;
60492;SDS011;46341;51.290;-2.474;2023-04-12T01:35:05;5.03;;;0.80;;
60492;SDS011;46341;51.290;-2.474;2023-04-12T01:37:34;5.35;;;1.33;;
60492;SDS011;46341;51.290;-2.474;2023-04-12T01:40:01;6.32;;;1.15;;
60492;SDS011;46341;51.290;-2.474;2023-04-12T01:42:31;9.00;;;1.70;;
60492;SDS011;46341;51.290;-2.474;2023-04-12T01:44:57;6.57;;;1.30;;
60492;SDS011;46341;51.290;-2.474;2023-04-12T01:47:24;8.57;;;1.92;;
60492;SDS011;46341;51.290;-2.474;2023-04-12T01:52:37;7.22;;;1.17;;
60492;SDS011;46341;51.290;-2.474;2023-04-12T01:55:06;5.35;;;0.82;;
60492;SDS011;46341;51.290;-2.474;2023-04-12T01:57:32;3.88;;;0.68;;
60492;SDS011;46341;51.290;-2.474;2023-04-12T02:00:01;9.57;;;0.90;;
60492;SDS011;46341;51.290;-2.474;2023-04-12T02:02:27;3.78;;;1.15;;
60492;SDS011;46341;51.290;-2.474;2023-04-12T02:04:54;7.28;;;1.20;;
60492;SDS011;46341;51.290;-2.474;2023-04-12T02:07:21;6.77;;;1.53;;
60492;SDS011;46341;51.290;-2.474;2023-04-12T02:09:48;4.70;;;0.95;;
60492;SDS011;46341;51.290;-2.474;2023-04-12T02:12:14;5.38;;;1.02;;
60492;SDS011;46341;51.290;-2.474;2023-04-12T02:14:41;6.10;;;1.33;;
60492;SDS011;46341;51.290;-2.474;2023-04-12T02:17:08;7.70;;;1.30;;
60492;SDS011;46341;51.290;-2.474;2023-04-12T02:19:34;5.68;;;0.95;;
60492;SDS011;46341;51.290;-2.474;2023-04-12T02:22:01;6.00;;;1.10;;
60492;SDS011;46341;51.290;-2.474;2023-04-12T02:24:27;5.80;;;1.45;;
60492;SDS011;46341;51.290;-2.474;2023-04-12T02:26:54;7.43;;;1.10;;
60492;SDS011;46341;51.290;-2.474;2023-04-12T02:29:21;7.40;;;1.02;;
60492;SDS011;46341;51.290;-2.474;2023-04-12T02:31:49;9.68;;;1.90;;
60492;SDS011;46341;51.290;-2.474;2023-04-12T02:34:16;6.13;;;0.98;;
60492;SDS011;46341;51.290;-2.474;2023-04-12T02:36:46;6.37;;;1.40;;
60492;SDS011;46341;51.290;-2.474;2023-04-12T02:39:12;18.92;;;1.70;;
60492;SDS011;46341;51.290;-2.474;2023-04-12T02:41:39;7.32;;;1.17;;
60492;SDS011;46341;51.290;-2.474;2023-04-12T02:44:06;7.65;;;1.10;;
60492;SDS011;46341;51.290;-2.474;2023-04-12T02:46:32;11.00;;;1.48;;
60492;SDS011;46341;51.290;-2.474;2023-04-12T02:48:58;13.48;;;1.50;;
60492;SDS011;46341;51.290;-2.474;2023-04-12T02:51:25;13.75;;;1.70;;
60492;SDS011;46341;51.290;-2.474;2023-04-12T02:53:53;9.45;;;1.65;;
60492;SDS011;46341;51.290;-2.474;2023-04-12T02:56:19;8.60;;;1.63;;
60492;SDS011;46341;51.290;-2.474;2023-04-12T02:58:46;16.88;;;2.10;;
60492;SDS011;46341;51.290;-2.474;2023-04-12T03:01:13;14.77;;;2.05;;
60492;SDS011;46341;51.290;-2.474;2023-04-12T03:03:39;8.98;;;1.60;;
60492;SDS011;46341;51.290;-2.474;2023-04-12T03:06:06;12.40;;;2.28;;
60492;SDS011;46341;51.290;-2.474;2023-04-12T03:11:01;11.40;;;1.50;;
60492;SDS011;46341;51.290;-2.474;2023-04-12T03:13:27;10.98;;;2.10;;
60492;SDS011;46341;51.290;-2.474;2023-04-12T03:15:54;11.15;;;1.90;;
60492;SDS011;46341;51.290;-2.474;2023-04-12T03:18:22;11.55;;;1.83;;
60492;SDS011;46341;51.290;-2.474;2023-04-12T03:20:49;13.60;;;1.73;;
60492;SDS011;46341;51.290;-2.474;2023-04-12T03:23:15;14.98;;;2.42;;
60492;SDS011;46341;51.290;-2.474;2023-04-12T03:25:41;11.65;;;1.98;;
60492;SDS011;46341;51.290;-2.474;2023-04-12T03:28:09;11.23;;;2.25;;
60492;SDS011;46341;51.290;-2.474;2023-04-12T03:30:36;12.18;;;1.98;;
60492;SDS011;46341;51.290;-2.474;2023-04-12T03:33:02;15.10;;;2.13;;
60492;SDS011;46341;51.290;-2.474;2023-04-12T03:35:29;10.40;;;1.45;;
60492;SDS011;46341;51.290;-2.474;2023-04-12T03:37:55;10.40;;;1.83;;
60492;SDS011;46341;51.290;-2.474;2023-04-12T03:40:21;12.65;;;1.92;;
60492;SDS011;46341;51.290;-2.474;2023-04-12T03:42:48;12.98;;;2.13;;
60492;SDS011;46341;51.290;-2.474;2023-04-12T03:45:14;16.65;;;2.20;;
60492;SDS011;46341;51.290;-2.474;2023-04-12T03:47:40;16.60;;;2.50;;
60492;SDS011;46341;51.290;-2.474;2023-04-12T03:50:07;12.93;;;2.10;;
60492;SDS011;46341;51.290;-2.474;2023-04-12T03:52:37;10.05;;;2.05;;
60492;SDS011;46341;51.290;-2.474;2023-04-12T03:55:04;14.65;;;2.55;;
60492;SDS011;46341;51.290;-2.474;2023-04-12T03:57:32;13.50;;;2.33;;
60492;SDS011;46341;51.290;-2.474;2023-04-12T03:59:59;13.75;;;1.95;;
60492;SDS011;46341;51.290;-2.474;2023-04-12T04:02:25;11.10;;;2.38;;
60492;SDS011;46341;51.290;-2.474;2023-04-12T04:04:52;10.82;;;1.95;;
60492;SDS011;46341;51.290;-2.474;2023-04-12T04:07:19;12.10;;;2.05;;
60492;SDS011;46341;51.290;-2.474;2023-04-12T04:09:46;13.20;;;2.17;;
60492;SDS011;46341;51.290;-2.474;2023-04-12T04:12:13;10.70;;;1.58;;
60492;SDS011;46341;51.290;-2.474;2023-04-12T04:14:39;9.30;;;1.77;;
60492;SDS011;46341;51.290;-2.474;2023-04-12T04:17:05;13.32;;;2.22;;
60492;SDS011;46341;51.290;-2.474;2023-04-12T04:19:32;8.43;;;1.60;;
60492;SDS011;46341;51.290;-2.474;2023-04-12T04:21:58;12.68;;;2.38;;
60492;SDS011;46341;51.290;-2.474;2023-04-12T04:24:27;8.98;;;2.08;;
60492;SDS011;46341;51.290;-2.474;2023-04-12T04:26:54;10.50;;;1.67;;
60492;SDS011;46341;51.290;-2.474;2023-04-12T04:29:20;14.85;;;2.17;;
60492;SDS011;46341;51.290;-2.474;2023-04-12T04:31:47;9.90;;;1.55;;
60492;SDS011;46341;51.290;-2.474;2023-04-12T04:34:13;13.43;;;2.58;;
60492;SDS011;46341;51.290;-2.474;2023-04-12T04:36:41;13.52;;;2.80;;
60492;SDS011;46341;51.290;-2.474;2023-04-12T04:39:07;13.25;;;3.60;;
60492;SDS011;46341;51.290;-2.474;2023-04-12T04:41:34;15.57;;;4.60;;
60492;SDS011;46341;51.290;-2.474;2023-04-12T04:44:05;13.40;;;4.93;;
60492;SDS011;46341;51.290;-2.474;2023-04-12T04:46:37;20.77;;;6.60;;
60492;SDS011;46341;51.290;-2.474;2023-04-12T04:49:05;18.50;;;6.90;;
60492;SDS011;46341;51.290;-2.474;2023-04-12T04:51:31;14.55;;;7.10;;
60492;SDS011;46341;51.290;-2.474;2023-04-12T04:53:58;17.55;;;7.88;;
60492;SDS011;46341;51.290;-2.474;2023-04-12T04:56:25;21.20;;;9.67;;
60492;SDS011;46341;51.290;-2.474;2023-04-12T04:58:51;23.05;;;10.77;;
60492;SDS011;46341;51.290;-2.474;2023-04-12T05:01:21;25.05;;;11.30;;
60492;SDS011;46341;51.290;-2.474;2023-04-12T05:03:51;19.98;;;8.40;;
60492;SDS011;46341;51.290;-2.474;2023-04-12T05:06:17;14.77;;;6.63;;
60492;SDS011;46341;51.290;-2.474;2023-04-12T05:08:44;14.38;;;5.30;;
60492;SDS011;46341;51.290;-2.474;2023-04-12T05:11:10;11.32;;;4.13;;
60492;SDS011;46341;51.290;-2.474;2023-04-12T05:13:37;11.05;;;5.38;;
60492;SDS011;46341;51.290;-2.474;2023-04-12T05:16:06;15.45;;;7.47;;
60492;SDS011;46341;51.290;-2.474;2023-04-12T05:18:33;21.23;;;10.13;;
60492;SDS011;46341;51.290;-2.474;2023-04-12T05:21:02;22.52;;;12.82;;
60492;SDS011;46341;51.290;-2.474;2023-04-12T05:23:31;23.80;;;14.10;;
60492;SDS011;46341;51.290;-2.474;2023-04-12T05:25:58;24.42;;;11.70;;
60492;SDS011;46341;51.290;-2.474;2023-04-12T05:28:24;19.60;;;9.70;;
60492;SDS011;46341;51.290;-2.474;2023-04-12T05:30:50;16.88;;;5.75;;
60492;SDS011;46341;51.290;-2.474;2023-04-12T05:33:17;12.23;;;4.15;;
60492;SDS011;46341;51.290;-2.474;2023-04-12T05:35:43;12.98;;;2.83;;
60492;SDS011;46341;51.290;-2.474;2023-04-12T05:38:10;8.50;;;2.47;;
60492;SDS011;46341;51.290;-2.474;2023-04-12T05:40:36;8.27;;;1.60;;
60492;SDS011;46341;51.290;-2.474;2023-04-12T05:43:03;10.45;;;2.08;;
60492;SDS011;46341;51.290;-2.474;2023-04-12T05:45:30;8.10;;;1.70;;
60492;SDS011;46341;51.290;-2.474;2023-04-12T05:47:56;7.57;;;1.70;;
60492;SDS011;46341;51.290;-2.474;2023-04-12T05:50:22;8.10;;;1.65;;
60492;SDS011;46341;51.290;-2.474;2023-04-12T05:52:49;5.18;;;1.10;;
60492;SDS011;46341;51.290;-2.474;2023-04-12T05:55:16;8.25;;;1.35;;
60492;SDS011;46341;51.290;-2.474;2023-04-12T05:57:43;11.77;;;1.40;;
60492;SDS011;46341;51.290;-2.474;2023-04-12T06:00:10;8.17;;;1.43;;
60492;SDS011;46341;51.290;-2.474;2023-04-12T06:02:44;10.25;;;1.35;;
60492;SDS011;46341;51.290;-2.474;2023-04-12T06:05:11;8.10;;;1.13;;
60492;SDS011;46341;51.290;-2.474;2023-04-12T06:07:38;6.80;;;1.52;;
60492;SDS011;46341;51.290;-2.474;2023-04-12T06:10:05;9.05;;;1.25;;
60492;SDS011;46341;51.290;-2.474;2023-04-12T06:12:32;10.23;;;1.65;;
60492;SDS011;46341;51.290;-2.474;2023-04-12T06:14:58;7.30;;;1.27;;
60492;SDS011;46341;51.290;-2.474;2023-04-12T06:17:25;7.90;;;1.38;;
60492;SDS011;46341;51.290;-2.474;2023-04-12T06:19:51;6.80;;;1.20;;
60492;SDS011;46341;51.290;-2.474;2023-04-12T06:22:17;8.23;;;1.40;;
60492;SDS011;46341;51.290;-2.474;2023-04-12T06:24:44;7.60;;;1.38;;
60492;SDS011;46341;51.290;-2.474;2023-04-12T06:27:10;9.00;;;1.20;;
60492;SDS011;46341;51.290;-2.474;2023-04-12T06:29:36;10.70;;;1.35;;
60492;SDS011;46341;51.290;-2.474;2023-04-12T06:32:03;8.07;;;1.20;;
60492;SDS011;46341;51.290;-2.474;2023-04-12T06:34:29;10.07;;;1.48;;
60492;SDS011;46341;51.290;-2.474;2023-04-12T06:36:59;8.15;;;1.42;;
60492;SDS011;46341;51.290;-2.474;2023-04-12T06:39:25;9.52;;;1.40;;
60492;SDS011;46341;51.290;-2.474;2023-04-12T06:41:52;6.53;;;1.05;;
60492;SDS011;46341;51.290;-2.474;2023-04-12T06:44:18;8.95;;;1.27;;
60492;SDS011;46341;51.290;-2.474;2023-04-12T06:46:45;3.40;;;1.00;;
60492;SDS011;46341;51.290;-2.474;2023-04-12T06:49:11;6.13;;;1.10;;
60492;SDS011;46341;51.290;-2.474;2023-04-12T06:51:38;9.43;;;1.20;;
60492;SDS011;46341;51.290;-2.474;2023-04-12T06:54:04;5.68;;;1.08;;
60492;SDS011;46341;51.290;-2.474;2023-04-12T06:56:30;6.45;;;1.73;;
60492;SDS011;46341;51.290;-2.474;2023-04-12T06:58:57;10.02;;;1.70;;
60492;SDS011;46341;51.290;-2.474;2023-04-12T07:01:24;13.02;;;1.58;;
60492;SDS011;46341;51.290;-2.474;2023-04-12T07:03:51;11.18;;;1.50;;
60492;SDS011;46341;51.290;-2.474;2023-04-12T07:06:17;5.03;;;1.20;;
60492;SDS011;46341;51.290;-2.474;2023-04-12T07:08:51;5.30;;;1.08;;
60492;SDS011;46341;51.290;-2.474;2023-04-12T07:11:17;6.03;;;1.52;;
60492;SDS011;46341;51.290;-2.474;2023-04-12T07:13:47;5.15;;;1.25;;
60492;SDS011;46341;51.290;-2.474;2023-04-12T07:16:13;6.60;;;1.00;;
60492;SDS011;46341;51.290;-2.474;2023-04-12T07:18:40;6.50;;;1.05;;
60492;SDS011;46341;51.290;-2.474;2023-04-12T07:21:06;8.20;;;1.00;;
60492;SDS011;46341;51.290;-2.474;2023-04-12T07:23:33;8.85;;;1.58;;
60492;SDS011;46341;51.290;-2.474;2023-04-12T07:25:59;8.10;;;1.70;;
60492;SDS011;46341;51.290;-2.474;2023-04-12T07:28:27;9.15;;;1.08;;
60492;SDS011;46341;51.290;-2.474;2023-04-12T07:30:53;6.78;;;0.88;;
60492;SDS011;46341;51.290;-2.474;2023-04-12T07:33:19;5.90;;;1.00;;
60492;SDS011;46341;51.290;-2.474;2023-04-12T07:35:46;3.55;;;0.90;;
60492;SDS011;46341;51.290;-2.474;2023-04-12T07:38:13;9.60;;;1.65;;
60492;SDS011;46341;51.290;-2.474;2023-04-12T07:40:42;6.68;;;1.30;;
60492;SDS011;46341;51.290;-2.474;2023-04-12T07:43:08;6.20;;;0.90;;
60492;SDS011;46341;51.290;-2.474;2023-04-12T07:45:37;7.00;;;1.10;;
60492;SDS011;46341;51.290;-2.474;2023-04-12T07:48:04;4.55;;;0.77;;
60492;SDS011;46341;51.290;-2.474;2023-04-12T07:50:30;4.20;;;0.77;;
60492;SDS011;46341;51.290;-2.474;2023-04-12T07:53:01;4.55;;;0.68;;
60492;SDS011;46341;51.290;-2.474;2023-04-12T07:55:42;3.67;;;0.80;;
60492;SDS011;46341;51.290;-2.474;2023-04-12T07:58:08;3.95;;;0.77;;
60492;SDS011;46341;51.290;-2.474;2023-04-12T08:00:35;3.10;;;0.70;;
60492;SDS011;46341;51.290;-2.474;2023-04-12T08:03:01;4.88;;;0.70;;
60492;SDS011;46341;51.290;-2.474;2023-04-12T08:05:28;3.83;;;0.90;;
60492;SDS011;46341;51.290;-2.474;2023-04-12T08:07:54;4.15;;;0.75;;
60492;SDS011;46341;51.290;-2.474;2023-04-12T08:10:21;2.47;;;0.75;;
60492;SDS011;46341;51.290;-2.474;2023-04-12T08:12:47;4.03;;;0.80;;
60492;SDS011;46341;51.290;-2.474;2023-04-12T08:15:13;5.40;;;0.93;;
60492;SDS011;46341;51.290;-2.474;2023-04-12T08:17:40;2.67;;;0.70;;
60492;SDS011;46341;51.290;-2.474;2023-04-12T08:20:09;7.28;;;1.10;;
60492;SDS011;46341;51.290;-2.474;2023-04-12T08:22:35;5.13;;;0.82;;
60492;SDS011;46341;51.290;-2.474;2023-04-12T08:25:02;5.75;;;0.70;;
60492;SDS011;46341;51.290;-2.474;2023-04-12T08:27:28;4.13;;;1.10;;
60492;SDS011;46341;51.290;-2.474;2023-04-12T08:29:55;6.22;;;1.17;;
60492;SDS011;46341;51.290;-2.474;2023-04-12T08:32:21;4.72;;;0.88;;
60492;SDS011;46341;51.290;-2.474;2023-04-12T08:34:48;6.77;;;1.13;;
60492;SDS011;46341;51.290;-2.474;2023-04-12T08:37:14;5.50;;;1.10;;
60492;SDS011;46341;51.290;-2.474;2023-04-12T08:39:42;5.13;;;1.00;;
60492;SDS011;46341;51.290;-2.474;2023-04-12T08:42:09;7.35;;;1.40;;
60492;SDS011;46341;51.290;-2.474;2023-04-12T08:44:37;4.45;;;1.35;;
60492;SDS011;46341;51.290;-2.474;2023-04-12T08:47:04;5.63;;;1.70;;
60492;SDS011;46341;51.290;-2.474;2023-04-12T08:49:31;4.47;;;1.13;;
60492;SDS011;46341;51.290;-2.474;2023-04-12T08:52:02;10.65;;;1.48;;
60492;SDS011;46341;51.290;-2.474;2023-04-12T08:54:31;5.88;;;1.35;;
60492;SDS011;46341;51.290;-2.474;2023-04-12T08:56:58;5.20;;;1.27;;
60492;SDS011;46341;51.290;-2.474;2023-04-12T08:59:26;6.35;;;1.08;;
60492;SDS011;46341;51.290;-2.474;2023-04-12T09:01:53;6.80;;;1.20;;
60492;SDS011;46341;51.290;-2.474;2023-04-12T09:04:20;6.85;;;1.20;;
60492;SDS011;46341;51.290;-2.474;2023-04-12T09:06:47;7.27;;;1.40;;
60492;SDS011;46341;51.290;-2.474;2023-04-12T09:09:13;6.95;;;1.75;;
60492;SDS011;46341;51.290;-2.474;2023-04-12T09:11:39;4.70;;;1.13;;
60492;SDS011;46341;51.290;-2.474;2023-04-12T09:14:22;7.47;;;1.60;;
60492;SDS011;46341;51.290;-2.474;2023-04-12T09:16:49;7.45;;;1.40;;
60492;SDS011;46341;51.290;-2.474;2023-04-12T09:19:22;7.47;;;1.58;;
60492;SDS011;46341;51.290;-2.474;2023-04-12T09:21:55;8.50;;;1.60;;
60492;SDS011;46341;51.290;-2.474;2023-04-12T09:24:22;6.18;;;1.38;;
60492;SDS011;46341;51.290;-2.474;2023-04-12T09:27:05;9.63;;;1.65;;
60492;SDS011;46341;51.290;-2.474;2023-04-12T09:29:32;7.82;;;1.92;;
60492;SDS011;46341;51.290;-2.474;2023-04-12T09:32:00;9.23;;;1.80;;
60492;SDS011;46341;51.290;-2.474;2023-04-12T09:34:27;6.05;;;1.73;;
60492;SDS011;46341;51.290;-2.474;2023-04-12T09:36:53;7.43;;;1.77;;
60492;SDS011;46341;51.290;-2.474;2023-04-12T09:39:29;8.30;;;1.73;;
60492;SDS011;46341;51.290;-2.474;2023-04-12T09:42:08;9.63;;;1.80;;
60492;SDS011;46341;51.290;-2.474;2023-04-12T09:44:55;9.80;;;1.65;;
60492;SDS011;46341;51.290;-2.474;2023-04-12T09:47:22;9.40;;;1.40;;
60492;SDS011;46341;51.290;-2.474;2023-04-12T09:50:01;10.20;;;1.90;;
60492;SDS011;46341;51.290;-2.474;2023-04-12T09:52:34;15.05;;;2.70;;
60492;SDS011;46341;51.290;-2.474;2023-04-12T09:55:00;10.82;;;1.83;;
60492;SDS011;46341;51.290;-2.474;2023-04-12T09:57:28;9.05;;;1.75;;
60492;SDS011;46341;51.290;-2.474;2023-04-12T09:59:55;9.53;;;1.80;;
60492;SDS011;46341;51.290;-2.474;2023-04-12T10:02:25;9.85;;;1.60;;
60492;SDS011;46341;51.290;-2.474;2023-04-12T10:04:52;11.63;;;1.83;;
60492;SDS011;46341;51.290;-2.474;2023-04-12T10:09:46;8.55;;;1.90;;
60492;SDS011;46341;51.290;-2.474;2023-04-12T10:12:13;13.07;;;2.05;;
60492;SDS011;46341;51.290;-2.474;2023-04-12T10:14:40;10.40;;;1.90;;
60492;SDS011;46341;51.290;-2.474;2023-04-12T10:17:07;10.55;;;2.05;;
60492;SDS011;46341;51.290;-2.474;2023-04-12T10:19:34;15.40;;;2.50;;
60492;SDS011;46341;51.290;-2.474;2023-04-12T10:22:02;13.82;;;2.28;;
60492;SDS011;46341;51.290;-2.474;2023-04-12T10:24:28;10.88;;;1.92;;
60492;SDS011;46341;51.290;-2.474;2023-04-12T10:26:55;9.65;;;2.03;;
60492;SDS011;46341;51.290;-2.474;2023-04-12T10:29:29;8.77;;;2.05;;
60492;SDS011;46341;51.290;-2.474;2023-04-12T10:32:18;10.57;;;1.58;;
60492;SDS011;46341;51.290;-2.474;2023-04-12T10:34:42;10.43;;;1.60;;
60492;SDS011;46341;51.290;-2.474;2023-04-12T10:37:09;13.27;;;2.28;;
60492;SDS011;46341;51.290;-2.474;2023-04-12T10:44:44;10.40;;;2.20;;
60492;SDS011;46341;51.290;-2.474;2023-04-12T10:47:10;9.10;;;2.10;;
60492;SDS011;46341;51.290;-2.474;2023-04-12T10:49:37;12.32;;;2.38;;
60492;SDS011;46341;51.290;-2.474;2023-04-12T10:54:30;12.65;;;2.40;;
60492;SDS011;46341;51.290;-2.474;2023-04-12T10:56:57;12.40;;;2.08;;
60492;SDS011;46341;51.290;-2.474;2023-04-12T10:59:23;12.52;;;2.65;;
60492;SDS011;46341;51.290;-2.474;2023-04-12T11:02:09;11.95;;;2.03;;
60492;SDS011;46341;51.290;-2.474;2023-04-12T11:04:37;9.57;;;2.15;;
60492;SDS011;46341;51.290;-2.474;2023-04-12T11:07:06;13.82;;;2.42;;
60492;SDS011;46341;51.290;-2.474;2023-04-12T11:14:45;13.57;;;2.53;;
60492;SDS011;46341;51.290;-2.474;2023-04-12T11:19:40;28.10;;;3.40;;
60492;SDS011;46341;51.290;-2.474;2023-04-12T11:22:08;18.52;;;2.70;;
60492;SDS011;46341;51.290;-2.474;2023-04-12T11:25:17;15.77;;;2.75;;
60492;SDS011;46341;51.290;-2.474;2023-04-12T11:27:24;12.52;;;1.92;;
60492;SDS011;46341;51.290;-2.474;2023-04-12T11:29:52;7.47;;;1.33;;
60492;SDS011;46341;51.290;-2.474;2023-04-12T11:32:21;7.68;;;1.20;;
60492;SDS011;46341;51.290;-2.474;2023-04-12T11:37:16;7.03;;;1.05;;
60492;SDS011;46341;51.290;-2.474;2023-04-12T11:39:44;4.75;;;0.98;;
60492;SDS011;46341;51.290;-2.474;2023-04-12T11:42:14;6.93;;;1.20;;
60492;SDS011;46341;51.290;-2.474;2023-04-12T11:44:41;4.50;;;0.90;;
60492;SDS011;46341;51.290;-2.474;2023-04-12T11:47:23;4.40;;;1.10;;
60492;SDS011;46341;51.290;-2.474;2023-04-12T11:52:17;6.53;;;1.10;;
60492;SDS011;46341;51.290;-2.474;2023-04-12T11:54:47;5.13;;;0.80;;
60492;SDS011;46341;51.290;-2.474;2023-04-12T11:57:15;3.25;;;0.73;;
60492;SDS011;46341;51.290;-2.474;2023-04-12T11:59:45;3.75;;;0.73;;
60492;SDS011;46341;51.290;-2.474;2023-04-12T12:02:12;2.72;;;0.52;;
60492;SDS011;46341;51.290;-2.474;2023-04-12T12:04:48;1.73;;;0.60;;
60492;SDS011;46341;51.290;-2.474;2023-04-12T12:07:16;2.72;;;0.50;;
60492;SDS011;46341;51.290;-2.474;2023-04-12T12:09:43;2.47;;;0.73;;
60492;SDS011;46341;51.290;-2.474;2023-04-12T12:12:10;4.10;;;0.70;;
60492;SDS011;46341;51.290;-2.474;2023-04-12T12:14:37;1.88;;;0.60;;
60492;SDS011;46341;51.290;-2.474;2023-04-12T12:17:10;2.65;;;0.57;;
60492;SDS011;46341;51.290;-2.474;2023-04-12T12:19:38;1.65;;;0.40;;
60492;SDS011;46341;51.290;-2.474;2023-04-12T12:24:31;1.83;;;0.50;;
60492;SDS011;46341;51.290;-2.474;2023-04-12T12:27:02;1.98;;;0.70;;
60492;SDS011;46341;51.290;-2.474;2023-04-12T12:29:35;3.35;;;0.47;;
60492;SDS011;46341;51.290;-2.474;2023-04-12T12:32:11;2.72;;;0.43;;
60492;SDS011;46341;51.290;-2.474;2023-04-12T12:34:48;2.90;;;0.50;;
60492;SDS011;46341;51.290;-2.474;2023-04-12T12:37:15;3.85;;;0.60;;
60492;SDS011;46341;51.290;-2.474;2023-04-12T12:42:49;4.28;;;0.50;;
60492;SDS011;46341;51.290;-2.474;2023-04-12T12:45:16;2.20;;;0.50;;
60492;SDS011;46341;51.290;-2.474;2023-04-12T12:50:18;10.15;;;1.30;;
60492;SDS011;46341;51.290;-2.474;2023-04-12T12:52:47;4.43;;;0.70;;
60492;SDS011;46341;51.290;-2.474;2023-04-12T12:55:14;9.45;;;1.25;;
60492;SDS011;46341;51.290;-2.474;2023-04-12T12:57:41;21.45;;;2.08;;
60492;SDS011;46341;51.290;-2.474;2023-04-12T13:00:08;6.77;;;1.87;;
60492;SDS011;46341;51.290;-2.474;2023-04-12T13:02:35;6.85;;;1.20;;
60492;SDS011;46341;51.290;-2.474;2023-04-12T13:05:03;5.55;;;0.88;;
60492;SDS011;46341;51.290;-2.474;2023-04-12T13:07:30;10.70;;;1.48;;
60492;SDS011;46341;51.290;-2.474;2023-04-12T13:09:56;7.15;;;1.00;;
60492;SDS011;46341;51.290;-2.474;2023-04-12T13:12:22;6.03;;;0.88;;
60492;SDS011;46341;51.290;-2.474;2023-04-12T13:14:49;8.70;;;1.20;;
60492;SDS011;46341;51.290;-2.474;2023-04-12T13:17:15;6.70;;;1.13;;
60492;SDS011;46341;51.290;-2.474;2023-04-12T13:19:43;5.72;;;1.02;;
60492;SDS011;46341;51.290;-2.474;2023-04-12T13:22:10;2.88;;;0.70;;
60492;SDS011;46341;51.290;-2.474;2023-04-12T13:24:37;8.25;;;1.15;;
60492;SDS011;46341;51.290;-2.474;2023-04-12T13:27:03;4.95;;;1.50;;
60492;SDS011;46341;51.290;-2.474;2023-04-12T13:29:30;9.45;;;1.80;;
60492;SDS011;46341;51.290;-2.474;2023-04-12T13:31:56;11.82;;;3.05;;
60492;SDS011;46341;51.290;-2.474;2023-04-12T13:34:23;6.82;;;2.00;;
60492;SDS011;46341;51.290;-2.474;2023-04-12T13:36:49;5.70;;;1.60;;
60492;SDS011;46341;51.290;-2.474;2023-04-12T13:39:16;9.68;;;2.35;;
60492;SDS011;46341;51.290;-2.474;2023-04-12T13:41:42;10.23;;;3.10;;
60492;SDS011;46341;51.290;-2.474;2023-04-12T13:44:09;9.23;;;2.55;;
60492;SDS011;46341;51.290;-2.474;2023-04-12T13:46:35;12.77;;;2.97;;
60492;SDS011;46341;51.290;-2.474;2023-04-12T13:49:02;8.38;;;2.03;;
60492;SDS011;46341;51.290;-2.474;2023-04-12T13:51:28;12.15;;;2.70;;
60492;SDS011;46341;51.290;-2.474;2023-04-12T13:53:54;12.77;;;2.60;;
60492;SDS011;46341;51.290;-2.474;2023-04-12T13:56:21;12.45;;;3.50;;
60492;SDS011;46341;51.290;-2.474;2023-04-12T13:58:47;6.93;;;1.80;;
60492;SDS011;46341;51.290;-2.474;2023-04-12T14:01:14;8.88;;;2.08;;
60492;SDS011;46341;51.290;-2.474;2023-04-12T14:03:41;15.02;;;2.30;;
60492;SDS011;46341;51.290;-2.474;2023-04-12T14:06:07;11.10;;;2.10;;
60492;SDS011;46341;51.290;-2.474;2023-04-12T14:08:34;11.50;;;2.10;;
60492;SDS011;46341;51.290;-2.474;2023-04-12T14:11:01;11.43;;;2.30;;
60492;SDS011;46341;51.290;-2.474;2023-04-12T14:13:28;12.60;;;2.45;;
60492;SDS011;46341;51.290;-2.474;2023-04-12T14:15:54;18.10;;;3.03;;
60492;SDS011;46341;51.290;-2.474;2023-04-12T14:18:21;12.23;;;2.50;;
60492;SDS011;46341;51.290;-2.474;2023-04-12T14:20:50;14.27;;;2.58;;
60492;SDS011;46341;51.290;-2.474;2023-04-12T14:23:20;15.23;;;2.60;;
60492;SDS011;46341;51.290;-2.474;2023-04-12T14:25:51;16.05;;;2.65;;
60492;SDS011;46341;51.290;-2.474;2023-04-12T14:28:17;12.73;;;2.55;;
60492;SDS011;46341;51.290;-2.474;2023-04-12T14:30:47;12.40;;;2.20;;
60492;SDS011;46341;51.290;-2.474;2023-04-12T14:33:16;11.75;;;1.98;;
60492;SDS011;46341;51.290;-2.474;2023-04-12T14:35:43;15.33;;;2.27;;
60492;SDS011;46341;51.290;-2.474;2023-04-12T14:38:09;13.25;;;3.03;;
60492;SDS011;46341;51.290;-2.474;2023-04-12T14:40:35;14.80;;;2.75;;
60492;SDS011;46341;51.290;-2.474;2023-04-12T14:43:02;14.02;;;2.30;;
60492;SDS011;46341;51.290;-2.474;2023-04-12T14:45:28;12.20;;;2.42;;
60492;SDS011;46341;51.290;-2.474;2023-04-12T14:47:55;16.17;;;3.33;;
60492;SDS011;46341;51.290;-2.474;2023-04-12T14:50:21;14.98;;;5.35;;
60492;SDS011;46341;51.290;-2.474;2023-04-12T14:52:48;14.35;;;3.33;;
60492;SDS011;46341;51.290;-2.474;2023-04-12T14:55:14;16.35;;;2.90;;
60492;SDS011;46341;51.290;-2.474;2023-04-12T14:57:42;16.02;;;2.90;;
60492;SDS011;46341;51.290;-2.474;2023-04-12T15:00:09;17.00;;;3.70;;
60492;SDS011;46341;51.290;-2.474;2023-04-12T15:02:43;16.90;;;3.60;;
60492;SDS011;46341;51.290;-2.474;2023-04-12T15:05:11;18.10;;;3.63;;
60492;SDS011;46341;51.290;-2.474;2023-04-12T15:07:38;16.52;;;3.67;;
60492;SDS011;46341;51.290;-2.474;2023-04-12T15:10:04;11.07;;;2.92;;